Latest Weather Observations for Georgetown Airport

IDQ60801

Issued at 4:35 pm EST Friday 25 July 2014 (issued every 30 minutes, with the page automatically refreshed every 10 minutes)

About weather observations | Map of weather stations | Latest weather observations for QLD | Other Formats
Station Details ID: 030124 Name: GEORGETOWN AIRPORT Lat: -18.30 Lon: 143.53 Height: 301.77 m
Data from the previous 72 hours. | See also: Recent months at Georgetown Airport
Date/Time
EST
Temp
°C
App
Temp
°C
Dew
Point
Rel
Hum
%
Delta-T
°C
Wind Press
QNH
hPa
Press
MSL
hPa
Rain
since 9 am
mm
Dir
 
Spd
km/h
Gust
km/h
Spd
kts
Gust
kts
25/04:30pm 27.2 25.8 13.5 42 8.2 NE 13 17 7 9 1017.8 - 0.0
25/04:00pm 27.1 26.3 14.1 44 7.8 ENE 11 20 6 11 1017.8 - 0.0
25/03:30pm 27.7 27.0 14.3 43 8.1 E 11 19 6 10 1017.7 - 0.0
25/03:00pm 27.2 25.3 14.2 44 7.9 ENE 17 26 9 14 1017.8 1016.9 0.0
25/02:30pm 27.0 24.8 13.4 43 8.1 NE 17 24 9 13 1018.1 - 0.0
25/02:00pm 27.8 25.4 14.4 43 8.2 NE 20 32 11 17 1018.1 - 0.0
25/01:30pm 28.0 25.8 14.3 43 8.3 E 19 28 10 15 1018.4 - 0.0
25/01:00pm 26.1 24.1 13.9 47 7.3 E 17 24 9 13 1019.2 - 0.0
25/12:30pm 26.9 25.4 14.3 46 7.6 E 15 20 8 11 1019.6 - 0.0
25/12:00pm 27.0 24.5 14.1 45 7.8 ENE 20 30 11 16 1020.2 1019.2 0.0
25/11:30am 26.3 24.1 14.4 48 7.2 E 19 24 10 13 1020.8 - 0.0
25/11:00am 25.4 23.8 13.9 49 6.9 E 15 24 8 13 1021.0 - 0.0
25/10:30am 25.7 23.8 14.2 49 6.9 E 17 28 9 15 1021.0 - 0.0
25/10:00am 24.6 23.0 13.8 51 6.4 E 15 24 8 13 1021.2 - 0.0
25/09:30am 24.0 22.1 14.1 54 5.9 ENE 17 24 9 13 1020.9 - 0.0
25/09:00am 22.5 20.1 13.8 58 5.1 E 19 24 10 13 1020.8 1019.9 0.0
25/08:30am 21.5 19.1 13.7 61 4.6 E 19 24 10 13 1020.6 - 0.0
25/08:00am 20.8 19.6 14.0 65 4.0 E 13 20 7 11 1020.4 - 0.0
25/07:30am 16.3 15.8 12.7 79 2.0 ESE 7 11 4 6 1020.0 - 0.0
25/07:00am 14.8 14.1 12.1 84 1.5 ESE 7 13 4 7 1019.6 - 0.0
25/06:30am 14.5 14.0 12.2 86 1.3 SE 6 7 3 4 1019.3 - 0.0
25/06:00am 15.2 15.5 12.1 82 1.7 E 2 7 1 4 1018.9 1017.9 0.0
25/05:30am 16.0 16.9 12.9 82 1.7 CALM 0 0 0 0 1018.6 - 0.0
25/05:00am 17.5 18.3 12.6 73 2.8 CALM 0 0 0 0 1018.4 - 0.0
25/04:30am 18.5 17.9 13.4 72 2.9 E 9 13 5 7 1018.3 - 0.0
25/04:00am 18.1 17.5 12.3 69 3.3 ENE 7 9 4 5 1018.4 - 0.0
25/03:30am 19.0 18.8 13.0 68 3.4 NNE 6 9 3 5 1018.2 - 0.0
25/03:00am 19.1 18.0 13.1 68 3.4 ENE 11 17 6 9 1018.3 1017.3 0.0
25/02:30am 18.7 17.8 12.7 68 3.4 ENE 9 13 5 7 1018.3 - 0.0
25/02:00am 18.8 17.9 12.5 67 3.6 ENE 9 15 5 8 1018.4 - 0.0
25/01:30am 19.0 18.5 12.5 66 3.7 E 7 11 4 6 1018.6 - 0.0
25/01:00am 19.4 18.4 12.4 64 4.0 E 9 13 5 7 1018.7 - 0.0
25/12:30am 19.8 18.9 12.6 63 4.1 E 9 13 5 7 1018.8 - 0.0
25/12:00am 20.1 19.2 12.6 62 4.3 E 9 13 5 7 1018.8 1017.8 0.0
 
Date/Time
EST
Temp
°C
App
Temp
°C
Dew
Point
Rel
Hum
%
Delta-T
°C
Wind Press
QNH
hPa
Press
MSL
hPa
Rain
since 9 am
mm
Dir
 
Spd
km/h
Gust
km/h
Spd
kts
Gust
kts
24/11:30pm 20.8 19.7 13.0 61 4.5 E 11 15 6 8 1019.0 - 0.0
24/11:00pm 21.0 19.8 12.7 59 4.8 E 11 20 6 11 1018.9 - 0.0
24/10:30pm 20.8 19.3 12.0 57 5.0 E 11 15 6 8 1018.8 - 0.0
24/10:00pm 21.6 20.0 11.6 53 5.7 E 11 17 6 9 1018.6 - 0.0
24/09:30pm 21.6 19.6 10.1 48 6.3 E 11 17 6 9 1018.4 - 0.0
24/09:00pm 20.7 18.9 8.0 44 6.7 E 7 11 4 6 1018.0 1017.0 0.0
24/08:30pm 21.3 19.6 8.2 43 7.0 SE 7 13 4 7 1017.4 - 0.0
24/08:00pm 20.7 18.9 7.3 42 7.0 N 6 7 3 4 1017.1 - 0.0
24/07:30pm 19.5 17.3 6.3 42 6.7 NNE 7 11 4 6 1016.7 - 0.0
24/07:00pm 21.1 20.2 5.9 37 7.7 CALM 0 0 0 0 1016.2 - 0.0
24/06:30pm 24.1 21.9 6.4 32 9.2 NE 7 9 4 5 1015.9 - 0.0
24/06:00pm 26.3 25.5 6.3 28 10.6 CALM 0 0 0 0 1015.7 1014.7 0.0
24/05:30pm 28.4 27.3 7.1 26 11.5 ENE 2 9 1 5 1015.5 - 0.0
24/05:00pm 28.1 26.6 6.8 26 11.5 E 4 15 2 8 1015.3 - 0.0
24/04:30pm 27.8 24.4 6.0 25 11.5 ENE 13 20 7 11 1015.2 - 0.0
24/04:00pm 28.2 24.1 6.3 25 11.7 ENE 17 24 9 13 1015.0 - 0.0
24/03:30pm 28.3 24.8 7.0 26 11.5 NNE 15 24 8 13 1015.0 - 0.0
24/03:00pm 28.5 25.2 6.6 25 11.8 NE 13 30 7 16 1015.1 1014.1 0.0
24/02:30pm 28.6 26.5 6.7 25 11.8 WNW 7 13 4 7 1015.3 - 0.0
24/02:00pm 28.0 25.4 6.2 25 11.6 E 9 20 5 11 1015.5 - 0.0
24/01:30pm 27.7 25.7 7.0 27 11.1 NW 7 15 4 8 1015.9 - 0.0
24/01:00pm 27.1 24.7 7.0 28 10.8 SSW 9 17 5 9 1016.3 - 0.0
24/12:30pm 27.0 24.2 6.9 28 10.8 NE 11 20 6 11 1016.8 - 0.0
24/12:00pm 26.6 23.5 7.1 29 10.4 NE 13 24 7 13 1017.3 1016.3 0.0
24/11:30am 25.6 22.9 7.2 31 9.8 E 11 17 6 9 1017.8 - 0.0
24/11:00am 24.9 22.4 8.0 34 9.1 NE 11 22 6 12 1018.2 - 0.0
24/10:30am 23.0 19.6 7.5 37 8.2 E 15 20 8 11 1018.5 - 0.0
24/10:00am 22.4 18.7 8.1 40 7.6 ENE 17 24 9 13 1018.5 - 0.0
24/09:30am 21.8 17.7 8.7 43 7.0 ENE 20 30 11 16 1018.5 - 0.0
24/09:00am 20.3 17.9 10.1 52 5.6 E 13 20 7 11 1018.4 1017.4 0.0
24/08:30am 18.2 17.3 10.6 61 4.1 SSW 6 7 3 4 1018.1 - 0.0
24/08:00am 15.3 14.3 10.9 75 2.4 S 7 11 4 6 1017.8 - 0.0
24/07:30am 11.5 11.1 9.6 88 1.0 SSE 2 7 1 4 1017.3 - 0.0
24/07:00am 10.9 10.9 9.7 92 0.6 CALM 0 0 0 0 1016.9 - 0.0
24/06:30am 11.1 9.8 9.2 88 1.0 NE 6 9 3 5 1016.5 - 0.0
24/06:00am 11.9 12.0 10.1 89 0.9 CALM 0 0 0 0 1016.2 1015.2 0.0
24/05:30am 12.7 11.7 9.0 78 1.9 E 4 7 2 4 1016.1 - 0.0
24/05:00am 14.2 13.2 10.2 77 2.1 E 6 7 3 4 1015.9 - 0.0
24/04:30am 15.6 14.5 10.6 72 2.7 E 7 11 4 6 1015.9 - 0.0
24/04:00am 17.0 14.7 10.6 66 3.5 E 13 20 7 11 1015.9 - 0.0
24/03:30am 17.1 14.9 10.7 66 3.5 ESE 13 20 7 11 1015.8 - 0.0
24/03:00am 16.8 15.3 11.9 73 2.7 E 11 15 6 8 1015.7 1014.7 0.0
24/02:30am 17.0 15.4 11.7 71 2.9 E 11 17 6 9 1016.0 - 0.0
24/02:00am 17.6 15.8 12.1 70 3.1 E 13 19 7 10 1016.1 - 0.0
24/01:30am 17.2 15.9 11.2 68 3.3 E 9 11 5 6 1016.3 - 0.0
24/01:00am 17.8 16.2 11.4 66 3.5 E 11 15 6 8 1016.3 - 0.0
24/12:30am 17.6 16.0 11.4 67 3.4 E 11 15 6 8 1016.5 - 0.0
24/12:00am 15.8 14.5 10.1 69 3.0 ESE 7 13 4 7 1016.5 1015.5 0.0
 
Date/Time
EST
Temp
°C
App
Temp
°C
Dew
Point
Rel
Hum
%
Delta-T
°C
Wind Press
QNH
hPa
Press
MSL
hPa
Rain
since 9 am
mm
Dir
 
Spd
km/h
Gust
km/h
Spd
kts
Gust
kts
23/11:30pm 13.7 10.9 3.2 49 4.8 E 7 9 4 5 1016.1 - 0.0
23/11:00pm 12.2 9.7 1.8 49 4.5 ESE 4 7 2 4 1016.2 - 0.0
23/10:30pm 12.9 11.2 1.9 47 4.8 CALM 0 6 0 3 1016.1 - 0.0
23/10:00pm 13.0 10.6 2.0 47 4.8 SE 4 11 2 6 1016.3 - 0.0
23/09:30pm 14.2 12.5 1.8 43 5.5 CALM 0 0 0 0 1016.3 - 0.0
23/09:00pm 14.4 12.7 1.7 42 5.6 CALM 0 6 0 3 1016.1 1015.1 0.0
23/08:30pm 15.8 14.0 1.2 37 6.5 CALM 0 0 0 0 1015.9 - 0.0
23/08:00pm 16.8 15.1 1.7 36 6.8 CALM 0 0 0 0 1015.6 - 0.0
23/07:30pm 18.2 15.8 2.1 34 7.4 WSW 4 13 2 7 1015.4 - 0.0
23/07:00pm 19.6 16.8 2.0 31 8.2 W 6 6 3 3 1015.2 - 0.0
23/06:30pm 21.7 18.7 1.9 27 9.4 WNW 7 7 4 4 1015.0 - 0.0
23/06:00pm 25.4 22.1 2.2 22 11.3 WNW 9 11 5 6 1014.8 1013.7 0.0
23/05:30pm 27.2 24.3 1.6 19 12.5 NW 6 9 3 5 1014.6 - 0.0
23/05:00pm 27.5 24.5 1.8 19 12.6 WNW 7 13 4 7 1014.3 - 0.0
23/04:30pm 27.3 23.9 1.7 19 12.5 N 9 15 5 8 1014.2 - 0.0
23/04:00pm 27.8 24.8 2.1 19 12.7 NNW 7 13 4 7 1014.2 - 0.0
23/03:30pm 28.0 24.2 1.5 18 13.0 N 11 19 6 10 1014.2 - 0.0
23/03:00pm 27.1 23.6 1.5 19 12.5 NNW 9 15 5 8 1014.3 1013.3 0.0
23/02:30pm 26.8 23.8 2.0 20 12.2 S 7 11 4 6 1014.7 - 0.0
23/02:00pm 27.3 23.2 2.4 20 12.3 N 13 19 7 10 1015.0 - 0.0
23/01:30pm 26.4 23.4 2.3 21 11.9 NW 7 13 4 7 1015.5 - 0.0
23/01:00pm 26.0 22.4 2.7 22 11.5 N 11 19 6 10 1016.0 - 0.0
23/12:30pm 25.2 22.0 3.2 24 10.9 NNE 9 19 5 10 1016.6 - 0.0
23/12:00pm 24.8 20.9 3.5 25 10.6 NE 13 20 7 11 1017.2 1016.2 0.0
23/11:30am 23.8 20.2 5.2 30 9.5 NE 13 20 7 11 1017.8 - 0.0
23/11:00am 23.6 19.7 5.5 31 9.3 ENE 15 24 8 13 1018.3 - 0.0
23/10:30am 22.9 18.7 5.8 33 8.8 NE 17 26 9 14 1018.6 - 0.0
23/10:00am 21.9 18.5 7.7 40 7.5 ENE 15 26 8 14 1018.8 - 0.0
23/09:30am 20.3 17.7 7.7 44 6.6 ENE 11 20 6 11 1018.9 - 0.0
23/09:00am 19.4 17.8 7.8 47 6.0 E 6 11 3 6 1018.9 1017.9 0.0
23/08:30am 16.8 15.1 8.2 57 4.4 SSE 7 11 4 6 1018.8 - 0.0
23/08:00am 14.3 12.7 8.0 66 3.2 SSE 6 9 3 5 1018.6 - 0.0
23/07:30am 10.8 8.8 7.3 79 1.7 S 7 11 4 6 1018.5 - 0.0
23/07:00am 10.5 7.8 7.2 80 1.6 SSW 11 13 6 7 1018.3 - 0.0
23/06:30am 9.1 6.8 5.8 80 1.5 SW 7 9 4 5 1017.7 - 0.0
23/06:00am 9.8 8.0 7.2 84 1.2 WSW 6 7 3 4 1017.3 1016.3 0.0
23/05:30am 10.1 9.0 6.8 80 1.6 E 2 7 1 4 1016.8 - 0.0
23/05:00am 10.5 9.6 6.1 74 2.1 CALM 0 0 0 0 1016.5 - 0.0
23/04:30am 11.2 10.2 5.5 68 2.7 CALM 0 6 0 3 1016.4 - 0.0
23/04:00am 13.2 11.4 7.2 67 3.0 NE 6 7 3 4 1016.5 - 0.0
23/03:30am 14.9 12.8 8.4 65 3.3 NE 9 11 5 6 1016.5 - 0.0
23/03:00am 15.3 13.0 7.6 60 3.9 ENE 9 11 5 6 1016.5 1015.5 0.0
23/02:30am 16.6 14.1 8.1 57 4.4 NNE 11 15 6 8 1016.6 - 0.0
23/02:00am 16.7 13.6 7.4 54 4.7 NNE 13 17 7 9 1016.5 - 0.0
23/01:30am 13.3 9.7 5.0 57 3.9 E 13 19 7 10 1016.6 - 0.0
23/01:00am 14.2 12.2 6.1 58 3.9 NE 6 9 3 5 1016.8 - 0.0
23/12:30am 13.3 10.5 3.4 51 4.5 NE 7 15 4 8 1016.6 - 0.0
23/12:00am 11.3 9.4 0.7 48 4.5 CALM 0 0 0 0 1016.7 1015.7 0.0
 
Date/Time
EST
Temp
°C
App
Temp
°C
Dew
Point
Rel
Hum
%
Delta-T
°C
Wind Press
QNH
hPa
Press
MSL
hPa
Rain
since 9 am
mm
Dir
 
Spd
km/h
Gust
km/h
Spd
kts
Gust
kts
22/11:30pm 11.9 10.0 0.4 45 4.8 CALM 0 4 0 2 1016.6 - 0.0
22/11:00pm 11.5 9.6 0.3 46 4.7 CALM 0 0 0 0 1016.7 - 0.0
22/10:30pm 12.9 10.9 0.0 41 5.4 CALM 0 0 0 0 1016.5 - 0.0
22/10:00pm 13.7 11.7 0.0 39 5.8 CALM 0 0 0 0 1016.5 - 0.0
22/09:30pm 13.7 10.3 -0.7 37 6.0 SSW 7 9 4 5 1016.5 - 0.0
22/09:00pm 16.0 14.1 0.6 35 6.8 CALM 0 0 0 0 1016.5 1015.5 0.0
22/08:30pm 16.7 14.3 -0.1 32 7.3 SSE 2 7 1 4 1016.3 - 0.0
22/08:00pm 17.9 16.1 1.0 32 7.6 CALM 0 0 0 0 1016.1 - 0.0
22/07:30pm 19.2 16.0 -0.2 27 8.6 E 6 7 3 4 1015.8 - 0.0
22/07:00pm 21.7 18.4 0.3 24 9.8 E 7 9 4 5 1015.5 - 0.0
22/06:30pm 24.9 21.0 1.1 21 11.3 E 11 13 6 7 1015.2 - 0.0
22/06:00pm 27.0 23.7 -0.9 16 13.0 WSW 6 6 3 3 1014.8 1013.7 0.0
22/05:30pm 29.1 26.7 -0.1 15 14.0 ENE 2 7 1 4 1014.6 - 0.0
22/05:00pm 29.0 25.8 -0.2 15 14.0 E 6 11 3 6 1014.3 - 0.0

Other Formats:

Comma delimited format used in spreadsheet applications
http://www.bom.gov.au/fwo/IDQ60801/IDQ60801.94274.axf

JavaScript Object Notation format (JSON) in row-major order
http://www.bom.gov.au/fwo/IDQ60801/IDQ60801.94274.json